createdAt,value
2022-09-28T15:49:38.753Z,89.45
2022-09-28T15:52:06.046Z,90.19
2022-09-28T15:54:42.474Z,91.05
2022-09-28T15:57:37.013Z,92.21
2022-09-28T16:00:25.744Z,91.98
2022-09-28T16:03:06.769Z,91.02
2022-09-28T16:05:36.743Z,89.70
2022-09-28T16:08:04.993Z,91.04
2022-09-28T16:10:34.043Z,88.59
2022-09-28T16:13:16.027Z,85.10
2022-09-28T16:15:43.002Z,84.79
2022-09-28T16:18:12.574Z,83.85
2022-09-28T16:20:42.447Z,82.97
2022-09-28T16:23:20.826Z,83.58
2022-09-28T16:26:09.549Z,83.10
2022-09-28T16:30:30.698Z,83.85
2022-09-28T16:31:38.480Z,85.18
2022-09-28T16:34:16.875Z,87.44
2022-09-28T16:36:45.552Z,89.31
2022-09-28T16:39:13.830Z,91.24
2022-09-28T16:41:44.307Z,92.74
2022-09-28T16:44:19.769Z,94.16
2022-09-28T16:46:47.303Z,95.63
2022-09-28T16:49:18.917Z,96.23
2022-09-28T16:51:47.140Z,97.04
2022-09-28T16:54:35.944Z,98.04
2022-09-28T16:57:07.502Z,98.11
2022-09-28T16:59:34.256Z,97.47
2022-09-28T17:02:00.956Z,96.93
2022-09-28T17:04:27.905Z,97.56
2022-09-28T17:06:55.540Z,96.78
2022-09-28T17:09:25.735Z,96.58
2022-09-28T17:11:56.977Z,95.42
2022-09-28T17:14:24.158Z,94.62
2022-09-28T17:17:08.118Z,94.20
2022-09-28T17:19:37.006Z,94.22
2022-09-28T17:22:04.212Z,96.22
2022-09-28T17:24:30.837Z,94.51
2022-09-28T17:26:57.548Z,94.92
2022-09-28T17:29:24.174Z,94.42
2022-09-28T17:31:50.934Z,95.26
2022-09-28T17:34:17.815Z,95.96
2022-09-28T17:36:44.981Z,95.34
2022-09-28T17:39:17.404Z,95.38
2022-09-28T17:41:44.253Z,95.74
2022-09-28T17:44:11.165Z,95.48
2022-09-28T17:46:39.794Z,95.32
2022-09-28T17:49:09.738Z,97.30
2022-09-28T17:51:37.632Z,96.69
2022-09-28T17:54:06.929Z,96.75
2022-09-28T17:56:34.363Z,97.07
2022-09-28T17:59:05.343Z,98.00
2022-09-28T18:01:35.455Z,98.23
2022-09-28T18:04:04.053Z,98.57
2022-09-28T18:06:34.054Z,98.86
2022-09-28T18:09:03.880Z,99.53
2022-09-28T18:11:32.160Z,99.97
2022-09-28T18:13:59.104Z,100.00
2022-09-28T18:16:27.909Z,100.00
2022-09-28T18:18:54.908Z,100.00
2022-09-28T18:21:21.845Z,100.00
2022-09-28T18:23:49.221Z,99.97
2022-09-28T18:26:16.783Z,99.73
2022-09-28T18:28:43.359Z,99.65
2022-09-28T18:31:37.674Z,100.00
2022-09-28T18:34:04.513Z,99.97
2022-09-28T18:36:32.537Z,99.09
2022-09-28T18:39:01.684Z,100.00
2022-09-28T18:41:28.467Z,100.00
2022-09-28T18:44:00.569Z,100.00
2022-09-28T18:46:36.032Z,100.00
2022-09-28T18:49:04.095Z,100.00
2022-09-28T18:51:30.788Z,100.00
2022-09-28T18:53:57.801Z,100.00
2022-09-28T18:56:27.235Z,100.00
2022-09-28T18:58:54.322Z,100.00
2022-09-28T19:01:30.451Z,100.00
2022-09-28T19:04:15.721Z,100.00
2022-09-28T19:06:44.627Z,100.00
2022-09-28T19:09:12.267Z,100.00
2022-09-28T19:11:39.024Z,100.00
2022-09-28T19:14:05.692Z,100.00
2022-09-28T19:16:35.387Z,100.00
2022-09-28T19:19:03.258Z,100.00
2022-09-28T19:21:30.475Z,100.00
2022-09-28T19:24:00.559Z,100.00
2022-09-28T19:26:28.108Z,100.00
2022-09-28T19:28:58.337Z,100.00
2022-09-28T19:31:26.137Z,100.00
2022-09-28T19:33:52.827Z,100.00
2022-09-28T19:36:23.492Z,100.00
2022-09-28T19:38:52.042Z,100.00
2022-09-28T19:41:43.354Z,100.00
2022-09-28T19:44:24.470Z,100.00
2022-09-28T19:47:06.808Z,100.00
2022-09-28T19:49:37.846Z,100.00
2022-09-28T19:52:13.445Z,100.00
2022-09-28T19:54:56.826Z,100.00
2022-09-28T19:57:25.164Z,100.00
2022-09-28T19:59:53.819Z,100.00
2022-09-28T20:02:22.517Z,100.00
2022-09-28T20:07:32.860Z,100.00
2022-09-28T20:09:59.804Z,100.00
2022-09-28T20:12:26.456Z,100.00
2022-09-28T20:14:53.063Z,100.00
2022-09-28T20:17:21.792Z,100.00
2022-09-28T20:19:51.265Z,100.00
2022-09-28T20:22:18.633Z,100.00
2022-09-28T20:24:45.486Z,100.00
2022-09-28T20:27:12.126Z,100.00
2022-09-28T20:29:39.062Z,100.00
2022-09-28T20:32:05.939Z,100.00
2022-09-28T20:34:34.098Z,100.00
2022-09-28T20:37:00.907Z,100.00
2022-09-28T20:39:27.545Z,100.00
2022-09-28T20:41:55.100Z,100.00
2022-09-28T20:44:21.931Z,100.00
2022-09-28T20:46:51.983Z,100.00
2022-09-28T20:49:18.918Z,100.00
2022-09-28T20:51:45.782Z,100.00
2022-09-28T20:54:12.425Z,100.00
2022-09-28T20:56:39.352Z,100.00
2022-09-28T20:59:11.610Z,100.00
2022-09-28T21:01:38.611Z,100.00
2022-09-28T21:04:07.128Z,100.00
2022-09-28T21:06:36.696Z,100.00
2022-09-28T21:09:04.891Z,100.00
2022-09-28T21:11:32.975Z,100.00
2022-09-28T21:14:01.683Z,100.00
2022-09-28T21:16:30.037Z,100.00
2022-09-28T21:18:56.745Z,100.00
2022-09-28T21:21:26.924Z,100.00
2022-09-28T21:23:57.344Z,100.00
2022-09-28T21:26:26.440Z,100.00
2022-09-28T21:29:01.767Z,100.00
2022-09-28T21:31:48.050Z,100.00
2022-09-28T21:34:19.236Z,100.00
2022-09-28T21:36:47.032Z,100.00
2022-09-28T21:39:17.810Z,100.00
2022-09-28T21:41:44.591Z,100.00
2022-09-28T21:44:11.191Z,100.00
2022-09-28T21:46:38.566Z,100.00
2022-09-28T21:49:07.500Z,100.00
2022-09-28T21:51:35.088Z,100.00
2022-09-28T21:54:01.670Z,100.00
2022-09-28T21:56:28.782Z,100.00
2022-09-28T21:58:55.489Z,100.00
2022-09-28T22:01:23.624Z,100.00
2022-09-28T22:03:52.357Z,100.00
2022-09-28T22:06:20.737Z,100.00
2022-09-28T22:08:48.300Z,100.00
2022-09-28T22:11:19.966Z,100.00
2022-09-28T22:13:57.888Z,100.00
2022-09-28T22:16:27.779Z,100.00
2022-09-28T22:18:54.527Z,100.00
2022-09-28T22:21:26.596Z,100.00
2022-09-28T22:23:53.509Z,100.00
2022-09-28T22:26:23.357Z,100.00
2022-09-28T22:29:01.410Z,100.00
2022-09-28T22:31:33.773Z,100.00
2022-09-28T22:34:00.527Z,100.00
2022-09-28T22:36:27.337Z,100.00
2022-09-28T22:38:55.088Z,100.00
2022-09-28T22:41:22.143Z,100.00
2022-09-28T22:43:50.071Z,100.00
2022-09-28T22:46:25.087Z,100.00
2022-09-28T22:48:55.935Z,100.00
2022-09-28T22:51:23.894Z,100.00
2022-09-28T22:53:50.685Z,100.00
2022-09-28T22:56:20.044Z,100.00
2022-09-28T22:58:46.861Z,100.00
2022-09-28T23:01:19.784Z,100.00
2022-09-28T23:03:47.433Z,100.00
2022-09-28T23:06:16.933Z,100.00
2022-09-28T23:08:44.712Z,100.00
2022-09-28T23:11:11.785Z,100.00
2022-09-28T23:13:38.889Z,100.00
2022-09-28T23:16:07.832Z,100.00
2022-09-28T23:18:36.119Z,100.00
2022-09-28T23:21:08.108Z,100.00
2022-09-28T23:23:34.869Z,100.00
2022-09-28T23:26:13.349Z,100.00
2022-09-28T23:28:40.064Z,100.00
2022-09-28T23:31:30.635Z,100.00
2022-09-28T23:33:59.081Z,100.00
2022-09-28T23:36:25.820Z,100.00
2022-09-28T23:38:52.914Z,100.00
2022-09-28T23:41:19.681Z,100.00
2022-09-28T23:43:46.235Z,100.00
2022-09-28T23:46:14.515Z,100.00
2022-09-28T23:48:42.986Z,100.00
2022-09-28T23:51:09.584Z,100.00
2022-09-28T23:53:36.143Z,100.00
2022-09-28T23:56:02.886Z,100.00
2022-09-28T23:58:29.520Z,100.00
